createdAt,value
2019-02-04T00:02:17.887Z,1.70
2019-02-04T00:04:45.373Z,1.90
2019-02-04T00:07:12.957Z,1.90
2019-02-04T00:09:40.506Z,2.13
2019-02-04T00:12:07.987Z,2.63
2019-02-04T00:14:35.543Z,1.97
2019-02-04T00:17:03.737Z,2.45
2019-02-04T00:19:31.197Z,2.40
2019-02-04T00:21:58.651Z,2.07
2019-02-04T00:24:26.913Z,2.30
2019-02-04T00:26:54.381Z,2.17
2019-02-04T00:29:21.849Z,2.10
2019-02-04T00:31:50.838Z,2.33
2019-02-04T00:34:18.396Z,2.60
2019-02-04T00:36:45.851Z,2.90
2019-02-04T00:39:13.354Z,2.70
2019-02-04T00:41:40.793Z,2.70
2019-02-04T00:44:08.249Z,1.90
2019-02-04T00:46:35.819Z,2.50
2019-02-04T00:49:04.210Z,2.60
2019-02-04T00:51:32.078Z,2.47
2019-02-04T00:53:59.602Z,2.53
2019-02-04T00:56:27.205Z,2.53
2019-02-04T00:58:54.765Z,3.03
2019-02-04T01:01:22.975Z,3.00
2019-02-04T01:03:51.197Z,2.20
2019-02-04T01:06:18.677Z,3.27
2019-02-04T01:08:46.153Z,2.97
2019-02-04T01:11:13.614Z,2.43
2019-02-04T01:13:41.849Z,2.60
2019-02-04T01:16:09.323Z,3.15
2019-02-04T01:18:36.801Z,2.60
2019-02-04T01:21:04.369Z,2.80
2019-02-04T01:23:31.848Z,2.40
2019-02-04T01:26:00.114Z,2.60
2019-02-04T01:28:28.336Z,3.23
2019-02-04T01:30:55.807Z,3.33
2019-02-04T01:33:23.273Z,2.63
2019-02-04T01:35:51.609Z,2.97
2019-02-04T01:38:19.853Z,3.17
2019-02-04T01:40:47.307Z,3.47
2019-02-04T01:43:14.790Z,3.53
2019-02-04T01:45:42.259Z,3.07
2019-02-04T01:48:09.715Z,2.60
2019-02-04T01:50:37.281Z,3.67
2019-02-04T01:53:04.748Z,3.20
2019-02-04T01:55:32.369Z,3.00
2019-02-04T01:57:59.829Z,2.77
2019-02-04T02:00:30.923Z,2.60
2019-02-04T02:02:58.370Z,2.97
2019-02-04T02:05:25.827Z,3.03
2019-02-04T02:07:53.287Z,3.17
2019-02-04T02:10:20.754Z,2.80
2019-02-04T02:12:48.346Z,3.10
2019-02-04T02:15:16.613Z,2.97
2019-02-04T02:17:45.113Z,3.47
2019-02-04T02:20:14.753Z,2.53
2019-02-04T02:22:42.209Z,3.00
2019-02-04T02:25:09.689Z,3.40
2019-02-04T02:27:37.183Z,3.03
2019-02-04T02:30:06.153Z,3.10
2019-02-04T02:32:33.642Z,3.20
2019-02-04T02:35:01.212Z,2.87
2019-02-04T02:37:28.687Z,3.40
2019-02-04T02:39:56.953Z,2.83
2019-02-04T02:42:24.686Z,3.33
2019-02-04T02:44:52.073Z,2.87
2019-02-04T02:47:19.649Z,4.10
2019-02-04T02:49:47.130Z,3.37
2019-02-04T02:52:15.351Z,3.23
2019-02-04T02:54:42.840Z,3.30
2019-02-04T02:57:10.309Z,3.00
2019-02-04T02:59:37.915Z,3.50
2019-02-04T03:02:05.433Z,3.00
2019-02-04T03:04:33.011Z,2.90
2019-02-04T03:07:00.467Z,2.83
2019-02-04T03:09:27.934Z,2.60
2019-02-04T03:11:55.409Z,2.93
2019-02-04T03:14:23.637Z,3.50
2019-02-04T03:16:51.110Z,3.20
2019-02-04T03:19:18.578Z,3.47
2019-02-04T03:21:46.058Z,3.03
2019-02-04T03:24:14.319Z,3.17
2019-02-04T03:26:41.854Z,2.83
2019-02-04T03:29:10.301Z,3.13
2019-02-04T03:31:40.315Z,3.13
2019-02-04T03:34:06.027Z,2.80
2019-02-04T03:36:34.293Z,2.53
2019-02-04T03:39:01.763Z,2.73
2019-02-04T03:41:29.212Z,3.03
2019-02-04T03:43:57.252Z,2.70
2019-02-04T03:46:25.075Z,3.23
2019-02-04T03:48:52.644Z,2.90
2019-02-04T03:51:20.109Z,3.00
2019-02-04T03:53:48.372Z,3.17
2019-02-04T03:56:15.839Z,2.87
2019-02-04T03:58:43.311Z,2.77
2019-02-04T04:01:10.763Z,2.85
2019-02-04T04:03:38.324Z,2.87
2019-02-04T04:06:05.783Z,3.10
2019-02-04T04:08:33.246Z,3.00
2019-02-04T04:11:00.819Z,3.10
2019-02-04T04:13:29.063Z,3.47
2019-02-04T04:15:56.551Z,3.50
2019-02-04T04:18:24.017Z,3.00
2019-02-04T04:20:51.491Z,3.00
2019-02-04T04:23:19.037Z,3.20
2019-02-04T04:25:46.490Z,2.90
2019-02-04T04:28:13.952Z,2.97
2019-02-04T04:30:41.417Z,3.13
2019-02-04T04:33:08.896Z,2.80
2019-02-04T04:35:36.433Z,3.93
2019-02-04T04:38:03.913Z,3.10
2019-02-04T04:40:32.884Z,3.10
2019-02-04T04:43:01.033Z,3.10
2019-02-04T04:45:28.545Z,3.00
2019-02-04T04:47:56.009Z,3.10
2019-02-04T04:50:23.570Z,3.10
2019-02-04T04:52:51.701Z,3.67
2019-02-04T04:55:19.284Z,3.27
2019-02-04T04:57:46.649Z,3.10
2019-02-04T05:00:14.985Z,3.03
2019-02-04T05:02:42.519Z,3.23
2019-02-04T05:05:09.989Z,3.30
2019-02-04T05:07:38.258Z,3.10
2019-02-04T05:10:05.712Z,3.47
2019-02-04T05:12:33.289Z,3.60
2019-02-04T05:15:01.515Z,3.30
2019-02-04T05:17:29.011Z,3.13
2019-02-04T05:19:56.487Z,3.23
2019-02-04T05:22:24.777Z,2.90
2019-02-04T05:24:53.022Z,3.00
2019-02-04T05:27:21.141Z,2.87
2019-02-04T05:29:49.413Z,2.87
2019-02-04T05:32:16.877Z,2.97
2019-02-04T05:34:45.152Z,3.30
2019-02-04T05:37:12.695Z,2.78
2019-02-04T05:39:40.144Z,2.47
2019-02-04T05:42:07.605Z,3.10
2019-02-04T05:44:35.089Z,2.50
2019-02-04T05:47:02.666Z,2.30
2019-02-04T05:49:30.131Z,2.63
2019-02-04T05:51:58.371Z,2.60
2019-02-04T05:54:25.855Z,2.57
2019-02-04T05:56:53.347Z,2.77
2019-02-04T05:59:21.561Z,2.80
2019-02-04T06:01:49.012Z,2.70
2019-02-04T06:04:16.481Z,2.73
2019-02-04T06:06:43.925Z,2.70
2019-02-04T06:09:11.406Z,2.83
2019-02-04T06:11:39.657Z,3.53
2019-02-04T06:14:07.898Z,3.17
2019-02-04T06:16:35.452Z,2.37
2019-02-04T06:19:04.876Z,2.43
2019-02-04T06:21:32.358Z,2.70
2019-02-04T06:24:00.618Z,2.80
2019-02-04T06:26:28.083Z,2.53
2019-02-04T06:28:55.629Z,3.00
2019-02-04T06:31:23.085Z,2.77
2019-02-04T06:33:50.547Z,3.07
2019-02-04T06:36:18.009Z,2.77
2019-02-04T06:38:45.464Z,2.57
2019-02-04T06:41:12.930Z,2.70
2019-02-04T06:43:40.390Z,3.07
2019-02-04T06:46:07.935Z,2.57
2019-02-04T06:48:35.413Z,2.83
2019-02-04T06:51:03.775Z,2.77
2019-02-04T06:53:31.228Z,2.63
2019-02-04T06:55:59.095Z,2.73
2019-02-04T06:58:26.563Z,2.80
2019-02-04T07:00:54.064Z,2.93
2019-02-04T07:03:21.566Z,2.97
2019-02-04T07:05:49.835Z,2.73
2019-02-04T07:08:17.382Z,3.00
2019-02-04T07:10:45.666Z,2.97
2019-02-04T07:13:13.135Z,2.67
2019-02-04T07:15:41.383Z,2.80
2019-02-04T07:18:08.881Z,2.87
2019-02-04T07:20:37.141Z,2.87
2019-02-04T07:23:04.710Z,2.33
2019-02-04T07:25:32.304Z,2.83
2019-02-04T07:28:00.562Z,2.60
2019-02-04T07:30:28.830Z,3.20
2019-02-04T07:32:56.295Z,2.90
2019-02-04T07:35:23.854Z,2.47
2019-02-04T07:37:51.439Z,2.80
2019-02-04T07:40:29.748Z,2.60
2019-02-04T07:42:58.030Z,2.93
2019-02-04T07:45:26.269Z,3.00
2019-02-04T07:47:54.278Z,2.37
2019-02-04T07:50:21.741Z,2.60
2019-02-04T07:52:50.013Z,2.90
2019-02-04T07:55:17.464Z,2.87
2019-02-04T07:57:44.927Z,2.77
2019-02-04T08:00:18.078Z,2.93
2019-02-04T08:02:45.560Z,2.80
2019-02-04T08:05:13.017Z,2.80
2019-02-04T08:07:40.485Z,2.77
2019-02-04T08:10:07.965Z,2.80
2019-02-04T08:12:35.516Z,2.70
2019-02-04T08:15:04.138Z,3.33
2019-02-04T08:17:32.385Z,2.90
2019-02-04T08:19:59.948Z,2.97
2019-02-04T08:22:27.509Z,2.83
2019-02-04T08:24:54.965Z,3.00
2019-02-04T08:27:22.446Z,2.83
2019-02-04T08:29:49.930Z,3.03
2019-02-04T08:32:17.385Z,3.17
2019-02-04T08:34:45.662Z,2.70
2019-02-04T08:37:13.143Z,2.87
2019-02-04T08:39:41.399Z,3.17
2019-02-04T08:42:08.853Z,3.20
2019-02-04T08:44:36.312Z,2.43
2019-02-04T08:47:03.786Z,2.47
2019-02-04T08:49:31.251Z,3.00
2019-02-04T08:51:58.718Z,3.77
2019-02-04T08:54:26.985Z,2.73
2019-02-04T08:56:54.525Z,3.50
2019-02-04T08:59:22.007Z,2.93
2019-02-04T09:01:49.677Z,2.93
2019-02-04T09:04:17.237Z,2.40
2019-02-04T09:06:44.702Z,3.33
2019-02-04T09:09:12.251Z,4.60
2019-02-04T09:11:39.717Z,3.17
2019-02-04T09:14:07.292Z,3.13
2019-02-04T09:16:34.851Z,3.13
2019-02-04T09:19:02.566Z,2.77
2019-02-04T09:21:30.081Z,3.80
2019-02-04T09:23:57.653Z,2.37
2019-02-04T09:26:25.273Z,3.03
2019-02-04T09:28:53.267Z,2.83
2019-02-04T09:31:20.724Z,2.70
2019-02-04T09:33:48.330Z,2.53
2019-02-04T09:36:16.338Z,3.20
2019-02-04T09:38:43.818Z,2.60
2019-02-04T09:41:11.759Z,3.10
2019-02-04T09:43:40.540Z,2.73
2019-02-04T09:46:08.768Z,2.50
2019-02-04T09:48:36.244Z,2.70
2019-02-04T09:51:04.032Z,3.20
2019-02-04T09:53:33.018Z,2.63
2019-02-04T09:56:00.589Z,3.00
2019-02-04T09:58:28.869Z,3.23
2019-02-04T10:00:56.438Z,2.80
2019-02-04T10:03:23.898Z,2.53
2019-02-04T10:05:52.868Z,2.83
2019-02-04T10:08:20.463Z,2.70
2019-02-04T10:10:48.025Z,2.43
2019-02-04T10:13:15.488Z,2.83
2019-02-04T10:15:45.723Z,2.87
2019-02-04T10:18:11.250Z,2.80
2019-02-04T10:20:38.763Z,2.67
2019-02-04T10:23:07.048Z,3.00
2019-02-04T10:25:34.538Z,2.87
2019-02-04T10:28:02.076Z,3.33
2019-02-04T10:30:29.795Z,3.03
2019-02-04T10:32:57.950Z,2.33
2019-02-04T10:35:25.429Z,2.97
2019-02-04T10:37:53.723Z,2.43
2019-02-04T10:40:24.006Z,3.30
2019-02-04T10:42:51.800Z,3.00
2019-02-04T10:45:21.090Z,2.50
2019-02-04T10:47:48.630Z,2.40
2019-02-04T10:50:17.222Z,2.63
2019-02-04T10:52:44.680Z,2.83
2019-02-04T10:55:12.172Z,2.50
2019-02-04T10:57:40.855Z,3.30
2019-02-04T11:00:08.700Z,2.87
2019-02-04T11:02:36.983Z,2.73
2019-02-04T11:05:04.447Z,2.97
2019-02-04T11:07:31.931Z,2.97
2019-02-04T11:10:00.252Z,2.60
2019-02-04T11:12:27.752Z,3.07
2019-02-04T11:14:55.288Z,3.43
2019-02-04T11:17:22.759Z,3.30
2019-02-04T11:19:50.260Z,3.63
2019-02-04T11:22:17.756Z,3.70
2019-02-04T11:24:45.734Z,3.13
2019-02-04T11:27:13.325Z,2.85
2019-02-04T11:29:40.765Z,2.90
2019-02-04T11:32:08.234Z,3.03
2019-02-04T11:34:35.758Z,2.90
2019-02-04T11:37:03.754Z,2.97
2019-02-04T11:39:31.956Z,2.90
2019-02-04T11:41:59.430Z,3.10
2019-02-04T11:44:26.921Z,3.10
2019-02-04T11:46:54.533Z,2.97
2019-02-04T11:49:22.705Z,3.23
2019-02-04T11:51:50.168Z,3.10
2019-02-04T11:54:17.667Z,3.17
2019-02-04T11:56:45.237Z,3.50
2019-02-04T11:59:12.802Z,2.60
2019-02-04T12:01:40.248Z,3.17
2019-02-04T12:04:07.707Z,3.00
2019-02-04T12:06:35.297Z,3.27
2019-02-04T12:09:03.654Z,3.10
2019-02-04T12:11:31.127Z,3.07
2019-02-04T12:13:58.593Z,3.40
2019-02-04T12:16:27.068Z,3.00
2019-02-04T12:18:54.520Z,3.20
2019-02-04T12:21:21.987Z,3.47
2019-02-04T12:23:49.457Z,3.33
2019-02-04T12:26:16.923Z,3.40
2019-02-04T12:28:44.489Z,3.37
2019-02-04T12:31:11.952Z,3.63
2019-02-04T12:33:39.524Z,3.23
2019-02-04T12:36:06.975Z,3.20
2019-02-04T12:38:34.450Z,3.03
2019-02-04T12:41:02.929Z,3.30
2019-02-04T12:43:30.391Z,3.97
2019-02-04T12:45:58.065Z,3.30
2019-02-04T12:48:25.513Z,3.80
2019-02-04T12:50:53.750Z,3.50
2019-02-04T12:53:21.213Z,3.63
2019-02-04T12:55:48.687Z,2.93
2019-02-04T12:58:16.152Z,3.33
2019-02-04T13:00:43.610Z,3.27
2019-02-04T13:03:11.399Z,3.43
2019-02-04T13:05:42.361Z,3.20
2019-02-04T13:08:09.798Z,3.60
2019-02-04T13:10:37.267Z,3.73
2019-02-04T13:13:04.828Z,3.40
2019-02-04T13:15:32.399Z,4.00
2019-02-04T13:17:59.970Z,3.47
2019-02-04T13:20:27.443Z,2.77
2019-02-04T13:22:55.714Z,3.70
2019-02-04T13:25:24.090Z,3.30
2019-02-04T13:27:51.990Z,3.27
2019-02-04T13:30:22.801Z,3.70
2019-02-04T13:32:50.355Z,3.50
2019-02-04T13:35:17.925Z,3.07
2019-02-04T13:37:45.478Z,3.77
2019-02-04T13:40:16.494Z,4.15
2019-02-04T13:42:43.982Z,3.20
2019-02-04T13:45:12.229Z,3.47
2019-02-04T13:47:39.676Z,3.50
2019-02-04T13:50:07.201Z,3.37
2019-02-04T13:52:34.655Z,3.37
2019-02-04T13:55:02.135Z,3.47
2019-02-04T13:57:30.366Z,3.30
2019-02-04T13:59:57.856Z,3.73
2019-02-04T14:02:25.329Z,3.03
2019-02-04T14:04:53.566Z,3.50
2019-02-04T14:07:21.453Z,3.40
2019-02-04T14:09:48.629Z,3.83
2019-02-04T14:12:16.875Z,3.50
2019-02-04T14:14:44.422Z,3.73
2019-02-04T14:17:11.936Z,3.30
2019-02-04T14:19:39.416Z,3.27
2019-02-04T14:22:09.303Z,3.70
2019-02-04T14:24:35.133Z,3.63
2019-02-04T14:27:04.288Z,2.97
2019-02-04T14:29:33.754Z,3.90
2019-02-04T14:31:59.225Z,3.43
2019-02-04T14:34:26.727Z,3.33
2019-02-04T14:36:54.189Z,3.47
2019-02-04T14:39:21.635Z,3.60
2019-02-04T14:41:49.217Z,3.63
2019-02-04T14:44:16.674Z,3.93
2019-02-04T14:46:46.669Z,3.30
2019-02-04T14:52:39.921Z,5.25
2019-02-04T14:55:12.886Z,3.70
2019-02-04T14:57:54.817Z,3.77
2019-02-04T15:00:25.716Z,3.37
2019-02-04T15:03:19.501Z,3.13
2019-02-04T15:05:37.138Z,3.13
2019-02-04T15:08:09.224Z,3.33
2019-02-04T15:10:47.391Z,3.37
2019-02-04T15:13:32.526Z,3.17
2019-02-04T15:16:12.738Z,3.00
2019-02-04T15:19:05.765Z,3.10
2019-02-04T15:21:37.034Z,3.10
2019-02-04T15:24:08.919Z,3.20
2019-02-04T15:26:48.158Z,3.37
2019-02-04T15:29:18.338Z,3.37
2019-02-04T15:31:50.177Z,3.57
2019-02-04T15:37:14.202Z,5.15
2019-02-04T15:39:56.196Z,3.57
2019-02-04T15:42:38.389Z,3.70
2019-02-04T15:45:18.441Z,3.03
2019-02-04T15:47:45.971Z,3.37
2019-02-04T15:53:12.737Z,5.25
2019-02-04T15:55:40.234Z,3.60
2019-02-04T15:58:08.496Z,3.23
2019-02-04T16:00:35.971Z,3.10
2019-02-04T16:03:03.951Z,3.47
2019-02-04T16:05:32.177Z,3.20
2019-02-04T16:07:59.647Z,3.40
2019-02-04T16:10:27.105Z,3.57
2019-02-04T16:12:54.597Z,3.30
2019-02-04T16:15:22.820Z,3.80
2019-02-04T16:17:50.336Z,3.90
2019-02-04T16:20:19.435Z,3.40
2019-02-04T16:22:57.844Z,3.83
2019-02-04T16:25:14.411Z,4.07
2019-02-04T16:27:41.873Z,3.10
2019-02-04T16:30:11.029Z,3.70
2019-02-04T16:32:38.518Z,3.50
2019-02-04T16:35:06.769Z,4.20
2019-02-04T16:37:34.226Z,3.70
2019-02-04T16:40:01.812Z,4.20
2019-02-04T16:42:30.036Z,3.53
2019-02-04T16:44:57.488Z,3.80
2019-02-04T16:47:24.937Z,4.70
2019-02-04T16:49:52.400Z,4.20
2019-02-04T16:52:20.316Z,3.93
2019-02-04T16:54:47.892Z,4.40
2019-02-04T16:57:15.363Z,4.20
2019-02-04T16:59:42.909Z,4.03
2019-02-04T17:02:10.362Z,4.40
2019-02-04T17:04:37.927Z,4.60
2019-02-04T17:07:05.396Z,4.20
2019-02-04T17:09:32.861Z,3.90
2019-02-04T17:12:01.152Z,5.17
2019-02-04T17:14:28.716Z,4.07
2019-02-04T17:16:56.164Z,4.63
2019-02-04T17:19:23.622Z,4.50
2019-02-04T17:21:51.095Z,4.40
2019-02-04T17:24:18.663Z,4.07
2019-02-04T17:26:46.151Z,4.63
2019-02-04T17:29:13.680Z,4.97
2019-02-04T17:31:41.141Z,5.33
2019-02-04T17:34:09.367Z,4.53
2019-02-04T17:36:36.832Z,4.57
2019-02-04T17:39:04.291Z,4.77
2019-02-04T17:41:31.801Z,4.90
2019-02-04T17:43:59.923Z,5.07
2019-02-04T17:46:26.740Z,5.60
2019-02-04T17:48:55.046Z,4.80
2019-02-04T17:51:22.601Z,4.87
2019-02-04T17:53:51.767Z,5.53
2019-02-04T17:56:19.340Z,5.63
2019-02-04T17:58:46.802Z,4.80
2019-02-04T18:01:14.324Z,5.07
2019-02-04T18:03:41.826Z,4.97
2019-02-04T18:06:09.297Z,5.25
2019-02-04T18:08:37.294Z,4.40
2019-02-04T18:11:05.518Z,5.60
2019-02-04T18:13:32.990Z,5.67
2019-02-04T18:16:00.568Z,5.40
2019-02-04T18:18:28.809Z,4.50
2019-02-04T18:20:56.293Z,6.13
2019-02-04T18:23:23.752Z,5.50
2019-02-04T18:25:51.248Z,6.17
2019-02-04T18:28:19.612Z,5.70
2019-02-04T18:30:47.080Z,5.93
2019-02-04T18:33:14.549Z,5.73
2019-02-04T18:35:42.010Z,6.00
2019-02-04T18:38:09.474Z,5.60
2019-02-04T18:40:37.701Z,5.73
2019-02-04T18:43:05.149Z,5.60
2019-02-04T18:45:32.634Z,6.13
2019-02-04T18:48:00.093Z,6.57
2019-02-04T18:50:27.579Z,5.97
2019-02-04T18:52:55.162Z,5.63
2019-02-04T18:55:33.230Z,6.17
2019-02-04T18:58:00.725Z,6.07
2019-02-04T19:00:30.976Z,6.23
2019-02-04T19:02:59.223Z,5.97
2019-02-04T19:05:26.969Z,6.10
2019-02-04T19:07:54.243Z,6.40
2019-02-04T19:10:21.812Z,6.20
2019-02-04T19:12:50.067Z,5.80
2019-02-04T19:15:17.521Z,6.80
2019-02-04T19:17:44.979Z,6.60
2019-02-04T19:20:15.159Z,6.10
2019-02-04T19:22:42.611Z,6.23
2019-02-04T19:25:10.177Z,6.53
2019-02-04T19:27:37.654Z,6.67
2019-02-04T19:30:11.449Z,6.97
2019-02-04T19:32:38.989Z,6.80
2019-02-04T19:35:06.441Z,7.43
2019-02-04T19:37:34.023Z,7.20
2019-02-04T19:40:02.295Z,7.87
2019-02-04T19:42:29.752Z,6.30
2019-02-04T19:44:57.323Z,7.67
2019-02-04T19:47:24.768Z,6.53
2019-02-04T19:49:52.251Z,7.87
2019-02-04T19:52:19.811Z,7.17
2019-02-04T19:54:48.038Z,7.27
2019-02-04T19:57:15.498Z,7.23
2019-02-04T19:59:42.948Z,7.00
2019-02-04T20:02:11.201Z,7.07
2019-02-04T20:04:39.441Z,7.27
2019-02-04T20:07:06.893Z,7.07
2019-02-04T20:09:34.359Z,6.90
2019-02-04T20:12:01.877Z,7.40
2019-02-04T20:14:29.430Z,7.30
2019-02-04T20:16:56.892Z,7.20
2019-02-04T20:19:24.351Z,7.27
2019-02-04T20:21:51.817Z,7.63
2019-02-04T20:24:19.271Z,7.60
2019-02-04T20:26:46.851Z,7.43
2019-02-04T20:29:15.094Z,7.93
2019-02-04T20:31:42.575Z,7.63
2019-02-04T20:34:10.044Z,8.23
2019-02-04T20:36:37.505Z,8.33
2019-02-04T20:39:04.971Z,8.63
2019-02-04T20:41:33.198Z,8.77
2019-02-04T20:44:00.670Z,6.67
2019-02-04T20:46:28.169Z,7.70
2019-02-04T20:48:55.636Z,7.03
2019-02-04T20:51:23.186Z,8.43
2019-02-04T20:53:50.650Z,7.73
2019-02-04T20:56:18.103Z,8.37
2019-02-04T20:58:45.581Z,8.13
2019-02-04T21:01:13.799Z,8.03
2019-02-04T21:03:41.291Z,7.50
2019-02-04T21:06:08.753Z,7.83
2019-02-04T21:08:38.372Z,8.20
2019-02-04T21:11:04.730Z,8.27
2019-02-04T21:13:32.215Z,7.83
2019-02-04T21:16:00.466Z,7.90
2019-02-04T21:18:27.955Z,8.20
2019-02-04T21:20:56.215Z,8.47
2019-02-04T21:23:23.777Z,8.30
2019-02-04T21:25:52.158Z,8.60
2019-02-04T21:28:19.617Z,9.63
2019-02-04T21:30:47.162Z,8.17
2019-02-04T21:33:14.633Z,8.53
2019-02-04T21:35:42.206Z,8.40
2019-02-04T21:38:09.762Z,8.73
2019-02-04T21:40:37.332Z,9.23
2019-02-04T21:43:04.888Z,8.02
2019-02-04T21:45:32.343Z,9.77
2019-02-04T21:47:59.849Z,8.77
2019-02-04T21:50:28.091Z,8.83
2019-02-04T21:52:55.574Z,8.63
2019-02-04T21:55:23.175Z,9.52
2019-02-04T21:57:50.654Z,8.37
2019-02-04T22:00:18.912Z,8.80
2019-02-04T22:02:46.359Z,8.80
2019-02-04T22:05:14.634Z,9.10
2019-02-04T22:07:42.098Z,8.70
2019-02-04T22:10:11.073Z,8.27
2019-02-04T22:12:38.527Z,9.10
2019-02-04T22:15:07.271Z,10.03
2019-02-04T22:17:34.735Z,9.47
2019-02-04T22:20:02.247Z,8.03
2019-02-04T22:22:29.797Z,8.20
2019-02-04T22:24:57.274Z,8.97
2019-02-04T22:27:24.835Z,8.65
2019-02-04T22:29:52.297Z,9.00
2019-02-04T22:32:19.777Z,9.70
2019-02-04T22:34:48.521Z,9.27
2019-02-04T22:37:16.785Z,9.00
2019-02-04T22:39:44.258Z,8.60
2019-02-04T22:42:11.700Z,8.67
2019-02-04T22:44:39.173Z,9.20
2019-02-04T22:47:06.673Z,9.60
2019-02-04T22:49:34.247Z,9.13
2019-02-04T22:52:04.167Z,9.93
2019-02-04T22:54:31.626Z,8.47
2019-02-04T22:56:59.112Z,9.50
2019-02-04T22:59:27.372Z,8.97
2019-02-04T23:01:54.822Z,9.23
2019-02-04T23:04:22.595Z,9.73
2019-02-04T23:06:50.049Z,9.20
2019-02-04T23:09:17.509Z,8.67
2019-02-04T23:11:44.986Z,9.70
2019-02-04T23:14:13.972Z,9.47
2019-02-04T23:16:41.438Z,8.90
2019-02-04T23:19:08.897Z,9.37
2019-02-04T23:21:37.135Z,10.00
2019-02-04T23:24:04.660Z,9.17
2019-02-04T23:26:32.130Z,9.43
2019-02-04T23:29:00.362Z,9.70
2019-02-04T23:31:27.935Z,9.63
2019-02-04T23:33:55.397Z,8.37
2019-02-04T23:36:22.867Z,8.70
2019-02-04T23:38:51.103Z,8.43
2019-02-04T23:41:18.582Z,9.33
2019-02-04T23:43:46.038Z,8.50
2019-02-04T23:46:13.501Z,8.43
2019-02-04T23:48:41.427Z,9.20
2019-02-04T23:51:09.215Z,8.93
2019-02-04T23:53:36.738Z,8.47
2019-02-04T23:56:04.219Z,8.00
2019-02-04T23:58:32.437Z,9.80
